sensor_id;sensor_type;location;lat;lon;timestamp;P1;durP1;ratioP1;P2;durP2;ratioP2
52104;SDS011;38103;42.776;23.112;2022-07-29T00:00:11;33.80;;;16.33;;
52104;SDS011;38103;42.776;23.112;2022-07-29T00:02:37;38.30;;;17.33;;
52104;SDS011;38103;42.776;23.112;2022-07-29T00:05:02;32.00;;;17.20;;
52104;SDS011;38103;42.776;23.112;2022-07-29T00:07:29;32.13;;;15.80;;
52104;SDS011;38103;42.776;23.112;2022-07-29T00:09:54;22.98;;;13.25;;
52104;SDS011;38103;42.776;23.112;2022-07-29T00:12:20;28.85;;;14.90;;
52104;SDS011;38103;42.776;23.112;2022-07-29T00:14:47;23.38;;;12.70;;
52104;SDS011;38103;42.776;23.112;2022-07-29T00:17:12;22.17;;;12.05;;
52104;SDS011;38103;42.776;23.112;2022-07-29T00:19:38;24.25;;;11.95;;
52104;SDS011;38103;42.776;23.112;2022-07-29T00:22:03;17.70;;;10.10;;
52104;SDS011;38103;42.776;23.112;2022-07-29T00:24:28;16.85;;;10.35;;
52104;SDS011;38103;42.776;23.112;2022-07-29T00:26:54;16.75;;;10.07;;
52104;SDS011;38103;42.776;23.112;2022-07-29T00:29:19;26.45;;;13.02;;
52104;SDS011;38103;42.776;23.112;2022-07-29T00:31:44;34.92;;;15.82;;
52104;SDS011;38103;42.776;23.112;2022-07-29T00:34:10;24.40;;;12.77;;
52104;SDS011;38103;42.776;23.112;2022-07-29T00:36:54;19.63;;;10.80;;
52104;SDS011;38103;42.776;23.112;2022-07-29T00:39:19;18.13;;;11.02;;
52104;SDS011;38103;42.776;23.112;2022-07-29T00:41:45;17.73;;;10.80;;
52104;SDS011;38103;42.776;23.112;2022-07-29T00:44:10;19.35;;;12.15;;
52104;SDS011;38103;42.776;23.112;2022-07-29T00:46:35;19.38;;;10.88;;
52104;SDS011;38103;42.776;23.112;2022-07-29T00:49:01;20.40;;;11.05;;
52104;SDS011;38103;42.776;23.112;2022-07-29T00:51:27;18.67;;;10.48;;
52104;SDS011;38103;42.776;23.112;2022-07-29T00:53:52;19.25;;;11.68;;
52104;SDS011;38103;42.776;23.112;2022-07-29T00:56:18;19.92;;;12.50;;
52104;SDS011;38103;42.776;23.112;2022-07-29T00:58:44;20.88;;;12.00;;
52104;SDS011;38103;42.776;23.112;2022-07-29T01:01:12;21.25;;;11.50;;
52104;SDS011;38103;42.776;23.112;2022-07-29T01:03:37;21.95;;;11.93;;
52104;SDS011;38103;42.776;23.112;2022-07-29T01:06:03;20.08;;;12.48;;
52104;SDS011;38103;42.776;23.112;2022-07-29T01:08:29;19.88;;;12.20;;
52104;SDS011;38103;42.776;23.112;2022-07-29T01:10:57;20.38;;;12.50;;
52104;SDS011;38103;42.776;23.112;2022-07-29T01:13:25;21.95;;;12.63;;
52104;SDS011;38103;42.776;23.112;2022-07-29T01:15:54;20.63;;;12.65;;
52104;SDS011;38103;42.776;23.112;2022-07-29T01:18:27;21.80;;;13.18;;
52104;SDS011;38103;42.776;23.112;2022-07-29T01:24:14;20.83;;;11.73;;
52104;SDS011;38103;42.776;23.112;2022-07-29T01:26:56;20.02;;;11.80;;
52104;SDS011;38103;42.776;23.112;2022-07-29T01:29:45;17.50;;;11.65;;
52104;SDS011;38103;42.776;23.112;2022-07-29T01:32:24;18.83;;;11.32;;
52104;SDS011;38103;42.776;23.112;2022-07-29T01:37:26;22.58;;;12.77;;
52104;SDS011;38103;42.776;23.112;2022-07-29T01:39:55;20.27;;;12.35;;
52104;SDS011;38103;42.776;23.112;2022-07-29T01:45:06;22.17;;;13.18;;
52104;SDS011;38103;42.776;23.112;2022-07-29T01:47:44;26.58;;;13.00;;
52104;SDS011;38103;42.776;23.112;2022-07-29T01:50:19;26.40;;;13.65;;
52104;SDS011;38103;42.776;23.112;2022-07-29T01:55:28;21.83;;;12.55;;
52104;SDS011;38103;42.776;23.112;2022-07-29T01:57:57;23.98;;;13.68;;
52104;SDS011;38103;42.776;23.112;2022-07-29T02:00:24;20.27;;;12.82;;
52104;SDS011;38103;42.776;23.112;2022-07-29T02:02:51;20.80;;;12.02;;
52104;SDS011;38103;42.776;23.112;2022-07-29T02:05:19;20.48;;;12.65;;
52104;SDS011;38103;42.776;23.112;2022-07-29T02:07:48;20.30;;;11.32;;
52104;SDS011;38103;42.776;23.112;2022-07-29T02:10:16;21.42;;;12.05;;
52104;SDS011;38103;42.776;23.112;2022-07-29T02:12:45;20.80;;;12.00;;
52104;SDS011;38103;42.776;23.112;2022-07-29T02:15:12;20.35;;;12.02;;
52104;SDS011;38103;42.776;23.112;2022-07-29T02:17:47;19.80;;;12.95;;
52104;SDS011;38103;42.776;23.112;2022-07-29T02:20:25;19.67;;;11.75;;
52104;SDS011;38103;42.776;23.112;2022-07-29T02:22:51;20.92;;;13.13;;
52104;SDS011;38103;42.776;23.112;2022-07-29T02:25:19;22.50;;;12.73;;
52104;SDS011;38103;42.776;23.112;2022-07-29T02:27:47;19.73;;;11.48;;
52104;SDS011;38103;42.776;23.112;2022-07-29T02:30:15;20.25;;;11.38;;
52104;SDS011;38103;42.776;23.112;2022-07-29T02:32:41;27.90;;;11.95;;
52104;SDS011;38103;42.776;23.112;2022-07-29T02:35:08;19.98;;;12.93;;
52104;SDS011;38103;42.776;23.112;2022-07-29T02:37:35;25.80;;;13.68;;
52104;SDS011;38103;42.776;23.112;2022-07-29T02:40:02;22.55;;;12.80;;
52104;SDS011;38103;42.776;23.112;2022-07-29T02:42:28;26.48;;;14.25;;
52104;SDS011;38103;42.776;23.112;2022-07-29T02:44:56;33.92;;;17.17;;
52104;SDS011;38103;42.776;23.112;2022-07-29T02:47:27;36.35;;;17.13;;
52104;SDS011;38103;42.776;23.112;2022-07-29T02:52:39;27.10;;;13.38;;
52104;SDS011;38103;42.776;23.112;2022-07-29T02:55:08;27.63;;;14.57;;
52104;SDS011;38103;42.776;23.112;2022-07-29T02:57:54;25.45;;;13.63;;
52104;SDS011;38103;42.776;23.112;2022-07-29T03:00:25;23.00;;;13.88;;
52104;SDS011;38103;42.776;23.112;2022-07-29T03:02:54;31.02;;;15.18;;
52104;SDS011;38103;42.776;23.112;2022-07-29T03:05:21;25.40;;;14.80;;
52104;SDS011;38103;42.776;23.112;2022-07-29T03:07:57;22.15;;;14.02;;
52104;SDS011;38103;42.776;23.112;2022-07-29T03:10:26;24.27;;;15.02;;
52104;SDS011;38103;42.776;23.112;2022-07-29T03:12:52;25.90;;;15.82;;
52104;SDS011;38103;42.776;23.112;2022-07-29T03:15:19;25.88;;;14.77;;
52104;SDS011;38103;42.776;23.112;2022-07-29T03:17:45;22.08;;;14.32;;
52104;SDS011;38103;42.776;23.112;2022-07-29T03:20:11;21.67;;;13.55;;
52104;SDS011;38103;42.776;23.112;2022-07-29T03:22:41;24.50;;;14.35;;
52104;SDS011;38103;42.776;23.112;2022-07-29T03:25:16;23.77;;;13.85;;
52104;SDS011;38103;42.776;23.112;2022-07-29T03:27:43;23.83;;;15.23;;
52104;SDS011;38103;42.776;23.112;2022-07-29T03:30:09;28.75;;;15.65;;
52104;SDS011;38103;42.776;23.112;2022-07-29T03:32:36;24.58;;;15.15;;
52104;SDS011;38103;42.776;23.112;2022-07-29T03:35:01;23.05;;;14.23;;
52104;SDS011;38103;42.776;23.112;2022-07-29T03:37:28;26.55;;;14.95;;
52104;SDS011;38103;42.776;23.112;2022-07-29T03:39:55;27.20;;;14.45;;
52104;SDS011;38103;42.776;23.112;2022-07-29T03:42:23;26.23;;;14.98;;
52104;SDS011;38103;42.776;23.112;2022-07-29T03:44:52;22.23;;;14.48;;
52104;SDS011;38103;42.776;23.112;2022-07-29T03:47:20;23.95;;;13.98;;
52104;SDS011;38103;42.776;23.112;2022-07-29T03:49:51;24.98;;;13.93;;
52104;SDS011;38103;42.776;23.112;2022-07-29T03:52:18;20.52;;;13.60;;
52104;SDS011;38103;42.776;23.112;2022-07-29T03:54:46;23.08;;;15.27;;
52104;SDS011;38103;42.776;23.112;2022-07-29T03:57:11;23.98;;;14.57;;
52104;SDS011;38103;42.776;23.112;2022-07-29T03:59:39;23.33;;;14.18;;
52104;SDS011;38103;42.776;23.112;2022-07-29T04:02:05;23.85;;;14.80;;
52104;SDS011;38103;42.776;23.112;2022-07-29T04:04:34;24.70;;;15.45;;
52104;SDS011;38103;42.776;23.112;2022-07-29T04:07:00;25.80;;;17.17;;
52104;SDS011;38103;42.776;23.112;2022-07-29T04:09:26;27.65;;;16.60;;
52104;SDS011;38103;42.776;23.112;2022-07-29T04:11:51;27.13;;;16.02;;
52104;SDS011;38103;42.776;23.112;2022-07-29T04:14:17;24.17;;;16.00;;
52104;SDS011;38103;42.776;23.112;2022-07-29T04:16:43;23.60;;;15.48;;
52104;SDS011;38103;42.776;23.112;2022-07-29T04:19:08;23.40;;;14.50;;
52104;SDS011;38103;42.776;23.112;2022-07-29T04:21:40;23.77;;;14.45;;
52104;SDS011;38103;42.776;23.112;2022-07-29T04:24:06;25.20;;;15.00;;
52104;SDS011;38103;42.776;23.112;2022-07-29T04:26:32;26.08;;;15.30;;
52104;SDS011;38103;42.776;23.112;2022-07-29T04:28:58;24.52;;;14.30;;
52104;SDS011;38103;42.776;23.112;2022-07-29T04:31:24;21.50;;;13.98;;
52104;SDS011;38103;42.776;23.112;2022-07-29T04:33:49;20.90;;;13.55;;
52104;SDS011;38103;42.776;23.112;2022-07-29T04:36:14;20.90;;;13.27;;
52104;SDS011;38103;42.776;23.112;2022-07-29T04:38:40;28.42;;;14.80;;
52104;SDS011;38103;42.776;23.112;2022-07-29T04:41:05;21.15;;;13.80;;
52104;SDS011;38103;42.776;23.112;2022-07-29T04:43:32;23.42;;;14.20;;
52104;SDS011;38103;42.776;23.112;2022-07-29T04:45:58;23.73;;;13.90;;
52104;SDS011;38103;42.776;23.112;2022-07-29T04:48:23;22.50;;;13.50;;
52104;SDS011;38103;42.776;23.112;2022-07-29T04:50:49;21.98;;;13.50;;
52104;SDS011;38103;42.776;23.112;2022-07-29T04:53:14;21.75;;;14.00;;
52104;SDS011;38103;42.776;23.112;2022-07-29T04:55:40;24.77;;;14.20;;
52104;SDS011;38103;42.776;23.112;2022-07-29T04:58:05;25.45;;;14.52;;
52104;SDS011;38103;42.776;23.112;2022-07-29T05:00:30;23.50;;;15.18;;
52104;SDS011;38103;42.776;23.112;2022-07-29T05:02:56;22.65;;;14.48;;
52104;SDS011;38103;42.776;23.112;2022-07-29T05:05:21;25.48;;;15.40;;
52104;SDS011;38103;42.776;23.112;2022-07-29T05:07:46;24.40;;;15.45;;
52104;SDS011;38103;42.776;23.112;2022-07-29T05:10:12;22.67;;;15.73;;
52104;SDS011;38103;42.776;23.112;2022-07-29T05:12:37;22.75;;;14.73;;
52104;SDS011;38103;42.776;23.112;2022-07-29T05:15:03;23.63;;;14.90;;
52104;SDS011;38103;42.776;23.112;2022-07-29T05:17:28;22.20;;;15.02;;
52104;SDS011;38103;42.776;23.112;2022-07-29T05:19:54;23.05;;;14.35;;
52104;SDS011;38103;42.776;23.112;2022-07-29T05:22:19;23.70;;;14.90;;
52104;SDS011;38103;42.776;23.112;2022-07-29T05:24:45;20.80;;;13.88;;
52104;SDS011;38103;42.776;23.112;2022-07-29T05:27:11;23.40;;;14.55;;
52104;SDS011;38103;42.776;23.112;2022-07-29T05:29:37;21.73;;;14.57;;
52104;SDS011;38103;42.776;23.112;2022-07-29T05:32:03;20.17;;;13.30;;
52104;SDS011;38103;42.776;23.112;2022-07-29T05:34:29;20.92;;;13.88;;
52104;SDS011;38103;42.776;23.112;2022-07-29T05:36:55;21.15;;;13.50;;
52104;SDS011;38103;42.776;23.112;2022-07-29T05:39:21;20.92;;;13.43;;
52104;SDS011;38103;42.776;23.112;2022-07-29T05:41:47;23.17;;;13.70;;
52104;SDS011;38103;42.776;23.112;2022-07-29T05:44:12;22.50;;;12.88;;
52104;SDS011;38103;42.776;23.112;2022-07-29T05:46:38;20.23;;;13.07;;
52104;SDS011;38103;42.776;23.112;2022-07-29T05:49:04;20.15;;;13.07;;
52104;SDS011;38103;42.776;23.112;2022-07-29T05:51:31;22.70;;;13.18;;
52104;SDS011;38103;42.776;23.112;2022-07-29T05:53:57;21.60;;;13.13;;
52104;SDS011;38103;42.776;23.112;2022-07-29T05:56:22;22.42;;;14.35;;
52104;SDS011;38103;42.776;23.112;2022-07-29T05:58:48;19.27;;;13.25;;
52104;SDS011;38103;42.776;23.112;2022-07-29T06:01:13;20.70;;;12.55;;
52104;SDS011;38103;42.776;23.112;2022-07-29T06:03:39;20.30;;;11.90;;
52104;SDS011;38103;42.776;23.112;2022-07-29T06:06:06;20.05;;;12.90;;
52104;SDS011;38103;42.776;23.112;2022-07-29T06:08:32;19.98;;;12.45;;
52104;SDS011;38103;42.776;23.112;2022-07-29T06:10:58;19.17;;;10.93;;
52104;SDS011;38103;42.776;23.112;2022-07-29T06:13:24;16.55;;;9.68;;
52104;SDS011;38103;42.776;23.112;2022-07-29T06:15:50;16.95;;;10.18;;
52104;SDS011;38103;42.776;23.112;2022-07-29T06:18:15;16.88;;;10.63;;
52104;SDS011;38103;42.776;23.112;2022-07-29T06:20:40;15.05;;;9.02;;
52104;SDS011;38103;42.776;23.112;2022-07-29T06:23:06;16.20;;;8.88;;
52104;SDS011;38103;42.776;23.112;2022-07-29T06:25:31;18.50;;;9.40;;
52104;SDS011;38103;42.776;23.112;2022-07-29T06:28:01;17.70;;;9.43;;
52104;SDS011;38103;42.776;23.112;2022-07-29T06:30:27;16.92;;;9.65;;
52104;SDS011;38103;42.776;23.112;2022-07-29T06:32:53;16.15;;;9.90;;
52104;SDS011;38103;42.776;23.112;2022-07-29T06:35:19;18.38;;;9.18;;
52104;SDS011;38103;42.776;23.112;2022-07-29T06:37:45;17.98;;;10.07;;
52104;SDS011;38103;42.776;23.112;2022-07-29T06:40:11;17.48;;;10.70;;
52104;SDS011;38103;42.776;23.112;2022-07-29T06:42:55;16.92;;;10.50;;
52104;SDS011;38103;42.776;23.112;2022-07-29T06:45:20;18.33;;;11.05;;
52104;SDS011;38103;42.776;23.112;2022-07-29T06:47:46;18.02;;;11.18;;
52104;SDS011;38103;42.776;23.112;2022-07-29T06:50:11;22.92;;;12.70;;
52104;SDS011;38103;42.776;23.112;2022-07-29T06:52:37;18.13;;;10.43;;
52104;SDS011;38103;42.776;23.112;2022-07-29T06:55:04;20.02;;;10.35;;
52104;SDS011;38103;42.776;23.112;2022-07-29T06:57:30;19.13;;;10.63;;
52104;SDS011;38103;42.776;23.112;2022-07-29T06:59:58;23.35;;;9.77;;
52104;SDS011;38103;42.776;23.112;2022-07-29T07:02:24;18.02;;;10.85;;
52104;SDS011;38103;42.776;23.112;2022-07-29T07:04:49;21.17;;;11.38;;
52104;SDS011;38103;42.776;23.112;2022-07-29T07:07:15;19.05;;;10.75;;
52104;SDS011;38103;42.776;23.112;2022-07-29T07:09:40;17.40;;;10.88;;
52104;SDS011;38103;42.776;23.112;2022-07-29T07:12:06;19.20;;;11.25;;
52104;SDS011;38103;42.776;23.112;2022-07-29T07:14:31;19.80;;;11.93;;
52104;SDS011;38103;42.776;23.112;2022-07-29T07:16:57;18.63;;;11.05;;
52104;SDS011;38103;42.776;23.112;2022-07-29T07:19:25;18.48;;;11.13;;
52104;SDS011;38103;42.776;23.112;2022-07-29T07:21:50;17.83;;;10.10;;
52104;SDS011;38103;42.776;23.112;2022-07-29T07:24:17;19.13;;;10.23;;
52104;SDS011;38103;42.776;23.112;2022-07-29T07:26:42;17.00;;;9.23;;
52104;SDS011;38103;42.776;23.112;2022-07-29T07:29:08;16.30;;;9.63;;
52104;SDS011;38103;42.776;23.112;2022-07-29T07:31:33;21.40;;;10.07;;
52104;SDS011;38103;42.776;23.112;2022-07-29T07:33:58;21.33;;;10.27;;
52104;SDS011;38103;42.776;23.112;2022-07-29T07:36:24;21.27;;;10.93;;
52104;SDS011;38103;42.776;23.112;2022-07-29T07:38:49;16.08;;;9.63;;
52104;SDS011;38103;42.776;23.112;2022-07-29T07:41:15;18.98;;;10.38;;
52104;SDS011;38103;42.776;23.112;2022-07-29T07:43:40;23.75;;;10.73;;
52104;SDS011;38103;42.776;23.112;2022-07-29T07:46:06;18.20;;;10.27;;
52104;SDS011;38103;42.776;23.112;2022-07-29T07:48:32;15.43;;;9.40;;
52104;SDS011;38103;42.776;23.112;2022-07-29T07:50:59;17.85;;;9.50;;
52104;SDS011;38103;42.776;23.112;2022-07-29T07:53:25;20.17;;;9.27;;
52104;SDS011;38103;42.776;23.112;2022-07-29T07:55:50;17.10;;;8.85;;
52104;SDS011;38103;42.776;23.112;2022-07-29T07:58:16;15.10;;;8.43;;
52104;SDS011;38103;42.776;23.112;2022-07-29T08:00:41;16.17;;;8.35;;
52104;SDS011;38103;42.776;23.112;2022-07-29T08:03:07;14.85;;;8.57;;
52104;SDS011;38103;42.776;23.112;2022-07-29T08:05:33;15.60;;;8.65;;
52104;SDS011;38103;42.776;23.112;2022-07-29T08:07:59;21.05;;;8.30;;
52104;SDS011;38103;42.776;23.112;2022-07-29T08:10:24;16.58;;;8.60;;
52104;SDS011;38103;42.776;23.112;2022-07-29T08:13:08;18.13;;;9.63;;
52104;SDS011;38103;42.776;23.112;2022-07-29T08:15:38;16.15;;;8.13;;
52104;SDS011;38103;42.776;23.112;2022-07-29T08:18:04;15.38;;;8.20;;
52104;SDS011;38103;42.776;23.112;2022-07-29T08:20:29;15.18;;;7.85;;
52104;SDS011;38103;42.776;23.112;2022-07-29T08:22:56;15.60;;;7.95;;
52104;SDS011;38103;42.776;23.112;2022-07-29T08:25:22;17.38;;;7.40;;
52104;SDS011;38103;42.776;23.112;2022-07-29T08:27:47;18.10;;;7.70;;
52104;SDS011;38103;42.776;23.112;2022-07-29T08:30:13;14.65;;;7.13;;
52104;SDS011;38103;42.776;23.112;2022-07-29T08:32:38;14.93;;;8.25;;
52104;SDS011;38103;42.776;23.112;2022-07-29T08:35:04;17.55;;;8.77;;
52104;SDS011;38103;42.776;23.112;2022-07-29T08:37:30;16.40;;;8.57;;
52104;SDS011;38103;42.776;23.112;2022-07-29T08:39:55;14.52;;;7.78;;
52104;SDS011;38103;42.776;23.112;2022-07-29T08:42:20;15.80;;;7.70;;
52104;SDS011;38103;42.776;23.112;2022-07-29T08:44:46;13.65;;;7.13;;
52104;SDS011;38103;42.776;23.112;2022-07-29T08:47:16;14.02;;;6.80;;
52104;SDS011;38103;42.776;23.112;2022-07-29T08:49:42;15.60;;;6.60;;
52104;SDS011;38103;42.776;23.112;2022-07-29T08:52:10;13.07;;;6.90;;
52104;SDS011;38103;42.776;23.112;2022-07-29T08:54:36;16.85;;;8.80;;
52104;SDS011;38103;42.776;23.112;2022-07-29T08:57:08;13.63;;;6.97;;
52104;SDS011;38103;42.776;23.112;2022-07-29T08:59:35;12.45;;;6.63;;
52104;SDS011;38103;42.776;23.112;2022-07-29T09:02:05;12.18;;;6.50;;
52104;SDS011;38103;42.776;23.112;2022-07-29T09:04:37;12.23;;;5.88;;
52104;SDS011;38103;42.776;23.112;2022-07-29T09:07:03;11.13;;;5.70;;
52104;SDS011;38103;42.776;23.112;2022-07-29T09:09:30;11.82;;;6.10;;
52104;SDS011;38103;42.776;23.112;2022-07-29T09:11:56;11.52;;;5.63;;
52104;SDS011;38103;42.776;23.112;2022-07-29T09:14:21;11.10;;;5.20;;
52104;SDS011;38103;42.776;23.112;2022-07-29T09:16:51;11.50;;;5.55;;
52104;SDS011;38103;42.776;23.112;2022-07-29T09:19:25;11.40;;;5.00;;
52104;SDS011;38103;42.776;23.112;2022-07-29T09:21:53;11.20;;;5.38;;
52104;SDS011;38103;42.776;23.112;2022-07-29T09:27:22;12.15;;;6.05;;
52104;SDS011;38103;42.776;23.112;2022-07-29T09:32:27;13.50;;;5.20;;
52104;SDS011;38103;42.776;23.112;2022-07-29T09:37:45;12.00;;;5.95;;
52104;SDS011;38103;42.776;23.112;2022-07-29T09:40:12;12.25;;;5.50;;
52104;SDS011;38103;42.776;23.112;2022-07-29T09:42:38;12.48;;;5.40;;
52104;SDS011;38103;42.776;23.112;2022-07-29T09:45:04;13.60;;;5.53;;
52104;SDS011;38103;42.776;23.112;2022-07-29T09:47:43;13.77;;;5.32;;
52104;SDS011;38103;42.776;23.112;2022-07-29T09:50:14;10.98;;;5.13;;
52104;SDS011;38103;42.776;23.112;2022-07-29T09:52:47;11.40;;;5.38;;
52104;SDS011;38103;42.776;23.112;2022-07-29T09:55:14;12.88;;;5.20;;
52104;SDS011;38103;42.776;23.112;2022-07-29T09:57:40;10.88;;;5.05;;
52104;SDS011;38103;42.776;23.112;2022-07-29T10:00:07;11.75;;;5.22;;
52104;SDS011;38103;42.776;23.112;2022-07-29T10:02:35;12.65;;;5.07;;
52104;SDS011;38103;42.776;23.112;2022-07-29T10:05:02;18.10;;;5.20;;
52104;SDS011;38103;42.776;23.112;2022-07-29T10:10:27;10.50;;;5.10;;
52104;SDS011;38103;42.776;23.112;2022-07-29T10:13:00;11.02;;;5.03;;
52104;SDS011;38103;42.776;23.112;2022-07-29T10:15:29;11.77;;;5.00;;
52104;SDS011;38103;42.776;23.112;2022-07-29T10:17:57;12.27;;;4.90;;
52104;SDS011;38103;42.776;23.112;2022-07-29T10:20:23;10.35;;;4.72;;
52104;SDS011;38103;42.776;23.112;2022-07-29T10:22:51;11.55;;;4.90;;
52104;SDS011;38103;42.776;23.112;2022-07-29T10:25:17;14.13;;;5.50;;
52104;SDS011;38103;42.776;23.112;2022-07-29T10:27:43;11.23;;;5.10;;
52104;SDS011;38103;42.776;23.112;2022-07-29T10:30:10;10.43;;;4.90;;
52104;SDS011;38103;42.776;23.112;2022-07-29T10:41:11;13.30;;;5.28;;
52104;SDS011;38103;42.776;23.112;2022-07-29T10:46:28;10.27;;;4.68;;
52104;SDS011;38103;42.776;23.112;2022-07-29T10:54:46;11.35;;;4.80;;
52104;SDS011;38103;42.776;23.112;2022-07-29T11:07:22;12.65;;;5.05;;
52104;SDS011;38103;42.776;23.112;2022-07-29T11:15:08;12.10;;;5.25;;
52104;SDS011;38103;42.776;23.112;2022-07-29T11:28:38;11.30;;;5.20;;
52104;SDS011;38103;42.776;23.112;2022-07-29T11:31:13;12.70;;;5.90;;
52104;SDS011;38103;42.776;23.112;2022-07-29T11:33:41;11.93;;;5.50;;
52104;SDS011;38103;42.776;23.112;2022-07-29T11:36:14;10.57;;;5.00;;
52104;SDS011;38103;42.776;23.112;2022-07-29T11:41:21;12.82;;;5.85;;
52104;SDS011;38103;42.776;23.112;2022-07-29T11:43:53;10.25;;;5.32;;
52104;SDS011;38103;42.776;23.112;2022-07-29T11:49:13;11.68;;;5.15;;
52104;SDS011;38103;42.776;23.112;2022-07-29T11:51:49;12.82;;;4.80;;
52104;SDS011;38103;42.776;23.112;2022-07-29T11:54:16;10.20;;;5.00;;
52104;SDS011;38103;42.776;23.112;2022-07-29T11:56:48;18.00;;;5.25;;
52104;SDS011;38103;42.776;23.112;2022-07-29T11:59:14;12.90;;;5.78;;
52104;SDS011;38103;42.776;23.112;2022-07-29T12:01:57;10.15;;;4.70;;
52104;SDS011;38103;42.776;23.112;2022-07-29T12:04:24;12.13;;;5.20;;
52104;SDS011;38103;42.776;23.112;2022-07-29T12:06:51;11.32;;;5.07;;
52104;SDS011;38103;42.776;23.112;2022-07-29T12:09:18;10.43;;;5.13;;
52104;SDS011;38103;42.776;23.112;2022-07-29T12:11:44;11.00;;;5.10;;
52104;SDS011;38103;42.776;23.112;2022-07-29T12:14:24;11.30;;;5.00;;
52104;SDS011;38103;42.776;23.112;2022-07-29T12:16:59;10.05;;;4.70;;
52104;SDS011;38103;42.776;23.112;2022-07-29T12:19:28;11.65;;;5.47;;
52104;SDS011;38103;42.776;23.112;2022-07-29T12:21:53;11.10;;;4.70;;
52104;SDS011;38103;42.776;23.112;2022-07-29T12:24:20;12.73;;;4.93;;
52104;SDS011;38103;42.776;23.112;2022-07-29T12:26:53;12.48;;;5.28;;
52104;SDS011;38103;42.776;23.112;2022-07-29T12:29:23;9.98;;;4.82;;
52104;SDS011;38103;42.776;23.112;2022-07-29T12:31:52;15.00;;;5.03;;
52104;SDS011;38103;42.776;23.112;2022-07-29T12:34:23;13.82;;;5.03;;
52104;SDS011;38103;42.776;23.112;2022-07-29T12:36:51;12.88;;;4.93;;
52104;SDS011;38103;42.776;23.112;2022-07-29T12:39:17;12.45;;;5.28;;
52104;SDS011;38103;42.776;23.112;2022-07-29T12:41:43;10.98;;;5.32;;
52104;SDS011;38103;42.776;23.112;2022-07-29T12:44:09;10.73;;;5.25;;
52104;SDS011;38103;42.776;23.112;2022-07-29T12:46:34;10.90;;;5.28;;
52104;SDS011;38103;42.776;23.112;2022-07-29T12:49:00;10.57;;;5.40;;
52104;SDS011;38103;42.776;23.112;2022-07-29T12:51:29;11.90;;;5.22;;
52104;SDS011;38103;42.776;23.112;2022-07-29T12:54:16;10.77;;;5.28;;
52104;SDS011;38103;42.776;23.112;2022-07-29T12:56:43;10.95;;;5.18;;
52104;SDS011;38103;42.776;23.112;2022-07-29T13:01:42;12.10;;;5.43;;
52104;SDS011;38103;42.776;23.112;2022-07-29T13:04:08;12.05;;;5.10;;
52104;SDS011;38103;42.776;23.112;2022-07-29T13:06:43;10.63;;;4.93;;
52104;SDS011;38103;42.776;23.112;2022-07-29T13:09:11;12.48;;;5.40;;
52104;SDS011;38103;42.776;23.112;2022-07-29T13:11:48;10.20;;;4.97;;
52104;SDS011;38103;42.776;23.112;2022-07-29T13:14:31;12.40;;;5.22;;
52104;SDS011;38103;42.776;23.112;2022-07-29T13:17:04;10.90;;;5.38;;
52104;SDS011;38103;42.776;23.112;2022-07-29T13:19:42;11.90;;;4.97;;
52104;SDS011;38103;42.776;23.112;2022-07-29T13:22:11;11.43;;;5.30;;
52104;SDS011;38103;42.776;23.112;2022-07-29T13:27:20;12.55;;;4.85;;
52104;SDS011;38103;42.776;23.112;2022-07-29T13:29:48;11.02;;;5.53;;
52104;SDS011;38103;42.776;23.112;2022-07-29T13:32:16;12.50;;;5.57;;
52104;SDS011;38103;42.776;23.112;2022-07-29T13:34:41;11.23;;;4.97;;
52104;SDS011;38103;42.776;23.112;2022-07-29T13:37:07;11.02;;;5.25;;
52104;SDS011;38103;42.776;23.112;2022-07-29T13:39:33;11.25;;;5.57;;
52104;SDS011;38103;42.776;23.112;2022-07-29T13:41:58;11.27;;;5.40;;
52104;SDS011;38103;42.776;23.112;2022-07-29T13:44:24;13.20;;;5.35;;
52104;SDS011;38103;42.776;23.112;2022-07-29T13:46:49;11.20;;;5.00;;
52104;SDS011;38103;42.776;23.112;2022-07-29T13:49:15;13.13;;;5.80;;
52104;SDS011;38103;42.776;23.112;2022-07-29T13:51:40;13.68;;;5.78;;
52104;SDS011;38103;42.776;23.112;2022-07-29T13:54:05;10.82;;;5.43;;
52104;SDS011;38103;42.776;23.112;2022-07-29T13:56:31;12.60;;;5.82;;
52104;SDS011;38103;42.776;23.112;2022-07-29T13:58:56;11.88;;;5.50;;
52104;SDS011;38103;42.776;23.112;2022-07-29T14:01:22;13.18;;;5.60;;
52104;SDS011;38103;42.776;23.112;2022-07-29T14:03:48;12.18;;;6.47;;
52104;SDS011;38103;42.776;23.112;2022-07-29T14:06:14;12.02;;;7.00;;
52104;SDS011;38103;42.776;23.112;2022-07-29T14:08:40;12.05;;;6.43;;
52104;SDS011;38103;42.776;23.112;2022-07-29T14:11:05;11.98;;;6.57;;
52104;SDS011;38103;42.776;23.112;2022-07-29T14:13:31;14.23;;;6.90;;
52104;SDS011;38103;42.776;23.112;2022-07-29T14:15:56;12.50;;;6.80;;
52104;SDS011;38103;42.776;23.112;2022-07-29T14:18:22;15.18;;;6.00;;
52104;SDS011;38103;42.776;23.112;2022-07-29T14:20:47;13.68;;;5.50;;
52104;SDS011;38103;42.776;23.112;2022-07-29T14:23:13;11.50;;;5.88;;
52104;SDS011;38103;42.776;23.112;2022-07-29T14:25:38;15.85;;;6.75;;
52104;SDS011;38103;42.776;23.112;2022-07-29T14:28:04;12.82;;;6.75;;
52104;SDS011;38103;42.776;23.112;2022-07-29T14:30:29;13.68;;;6.25;;
52104;SDS011;38103;42.776;23.112;2022-07-29T14:32:54;11.50;;;5.90;;
52104;SDS011;38103;42.776;23.112;2022-07-29T14:35:20;10.57;;;5.43;;
52104;SDS011;38103;42.776;23.112;2022-07-29T14:37:45;13.07;;;6.20;;
52104;SDS011;38103;42.776;23.112;2022-07-29T14:40:11;13.77;;;6.25;;
52104;SDS011;38103;42.776;23.112;2022-07-29T14:42:36;13.00;;;7.25;;
52104;SDS011;38103;42.776;23.112;2022-07-29T14:45:03;11.95;;;6.35;;
52104;SDS011;38103;42.776;23.112;2022-07-29T14:47:30;13.55;;;6.60;;
52104;SDS011;38103;42.776;23.112;2022-07-29T14:49:55;12.35;;;7.05;;
52104;SDS011;38103;42.776;23.112;2022-07-29T14:52:21;13.13;;;6.97;;
52104;SDS011;38103;42.776;23.112;2022-07-29T14:54:46;13.68;;;7.50;;
52104;SDS011;38103;42.776;23.112;2022-07-29T14:57:12;15.73;;;7.05;;
52104;SDS011;38103;42.776;23.112;2022-07-29T14:59:37;14.05;;;6.32;;
52104;SDS011;38103;42.776;23.112;2022-07-29T15:02:03;12.02;;;5.97;;
52104;SDS011;38103;42.776;23.112;2022-07-29T15:04:28;11.55;;;5.50;;
52104;SDS011;38103;42.776;23.112;2022-07-29T15:06:53;13.10;;;5.25;;
52104;SDS011;38103;42.776;23.112;2022-07-29T15:09:19;11.15;;;5.40;;
52104;SDS011;38103;42.776;23.112;2022-07-29T15:11:44;12.55;;;5.55;;
52104;SDS011;38103;42.776;23.112;2022-07-29T15:14:10;11.45;;;5.50;;
52104;SDS011;38103;42.776;23.112;2022-07-29T15:16:36;14.48;;;6.05;;
52104;SDS011;38103;42.776;23.112;2022-07-29T15:19:02;12.30;;;5.93;;
52104;SDS011;38103;42.776;23.112;2022-07-29T15:21:28;12.85;;;5.50;;
52104;SDS011;38103;42.776;23.112;2022-07-29T15:23:54;11.02;;;5.40;;
52104;SDS011;38103;42.776;23.112;2022-07-29T15:26:19;11.80;;;5.30;;
52104;SDS011;38103;42.776;23.112;2022-07-29T15:28:45;11.38;;;5.65;;
52104;SDS011;38103;42.776;23.112;2022-07-29T15:31:11;11.55;;;5.20;;
52104;SDS011;38103;42.776;23.112;2022-07-29T15:33:36;11.13;;;5.60;;
52104;SDS011;38103;42.776;23.112;2022-07-29T15:36:02;11.23;;;5.50;;